createdAt,value
2023-08-22T00:01:32.239Z,26.40
2023-08-22T00:03:38.273Z,26.40
2023-08-22T00:05:45.805Z,26.50
2023-08-22T00:07:53.557Z,26.50
2023-08-22T00:10:01.255Z,26.50
2023-08-22T00:12:09.066Z,26.50
2023-08-22T00:14:16.637Z,26.50
2023-08-22T00:16:28.887Z,26.50
2023-08-22T00:18:36.631Z,26.50
2023-08-22T00:20:44.740Z,26.60
2023-08-22T00:22:52.282Z,26.60
2023-08-22T00:24:59.559Z,26.60
2023-08-22T00:27:07.252Z,26.60
2023-08-22T00:29:14.486Z,26.60
2023-08-22T00:31:21.837Z,26.60
2023-08-22T00:33:31.101Z,26.60
2023-08-22T00:35:39.360Z,26.60
2023-08-22T00:37:46.700Z,26.60
2023-08-22T00:39:54.441Z,26.60
2023-08-22T00:42:02.797Z,26.70
2023-08-22T00:44:11.615Z,26.70
2023-08-22T00:46:22.372Z,26.70
2023-08-22T00:48:31.816Z,26.70
2023-08-22T00:50:39.410Z,26.70
2023-08-22T00:52:47.360Z,26.80
2023-08-22T00:54:54.896Z,26.80
2023-08-22T00:57:02.960Z,26.80
2023-08-22T00:59:11.056Z,26.90
2023-08-22T01:01:18.750Z,26.90
2023-08-22T01:03:26.574Z,27.00
2023-08-22T01:05:41.611Z,27.00
2023-08-22T01:07:59.844Z,27.10
2023-08-22T01:10:16.360Z,27.10
2023-08-22T01:12:36.178Z,27.10
2023-08-22T01:14:54.322Z,27.10
2023-08-22T01:17:02.638Z,27.20
2023-08-22T01:19:12.213Z,27.20
2023-08-22T01:21:26.360Z,27.20
2023-08-22T01:23:36.253Z,27.30
2023-08-22T01:25:43.852Z,27.30
2023-08-22T01:28:02.084Z,27.30
2023-08-22T01:30:16.947Z,27.30
2023-08-22T01:32:28.734Z,27.40
2023-08-22T01:34:37.477Z,27.40
2023-08-22T01:36:47.019Z,27.40
2023-08-22T01:38:57.499Z,27.50
2023-08-22T01:41:06.267Z,27.50
2023-08-22T01:43:13.814Z,27.50
2023-08-22T01:45:21.455Z,27.60
2023-08-22T01:47:30.140Z,27.60
2023-08-22T01:49:39.712Z,27.60
2023-08-22T01:51:46.996Z,27.70
2023-08-22T01:53:56.426Z,27.70
2023-08-22T01:56:04.739Z,27.70
2023-08-22T01:58:13.299Z,27.70
2023-08-22T02:00:20.839Z,27.80
2023-08-22T02:02:28.467Z,27.80
2023-08-22T02:04:36.075Z,27.90
2023-08-22T02:06:44.854Z,27.90
2023-08-22T02:08:52.130Z,27.90
2023-08-22T02:11:01.511Z,28.00
2023-08-22T02:13:09.302Z,28.00
2023-08-22T02:15:17.047Z,28.00
2023-08-22T02:17:24.407Z,28.10
2023-08-22T02:19:32.179Z,28.10
2023-08-22T02:21:39.579Z,28.10
2023-08-22T02:23:47.159Z,28.10
2023-08-22T02:25:54.596Z,28.20
2023-08-22T02:28:04.137Z,28.20
2023-08-22T02:30:13.068Z,28.20
2023-08-22T02:32:20.454Z,28.20
2023-08-22T02:34:28.039Z,28.20
2023-08-22T02:36:36.478Z,28.30
2023-08-22T02:38:44.804Z,28.30
2023-08-22T02:40:52.138Z,28.30
2023-08-22T02:42:59.319Z,28.30
2023-08-22T02:45:11.006Z,28.30
2023-08-22T02:47:18.602Z,28.30
2023-08-22T02:49:25.934Z,28.30
2023-08-22T02:51:35.313Z,28.40
2023-08-22T02:53:42.856Z,28.40
2023-08-22T02:55:53.432Z,28.40
2023-08-22T02:58:00.597Z,28.40
2023-08-22T03:00:13.569Z,28.50
2023-08-22T03:02:20.958Z,28.50
2023-08-22T03:04:28.541Z,28.50
2023-08-22T03:06:36.799Z,28.60
2023-08-22T03:08:46.182Z,28.60
2023-08-22T03:10:54.081Z,28.60
2023-08-22T03:13:03.206Z,28.60
2023-08-22T03:15:14.956Z,28.70
2023-08-22T03:17:22.639Z,28.70
2023-08-22T03:19:30.284Z,28.70
2023-08-22T03:21:42.847Z,28.70
2023-08-22T03:23:50.077Z,28.70
2023-08-22T03:26:02.118Z,28.80
2023-08-22T03:28:10.124Z,28.80
2023-08-22T03:30:19.711Z,28.80
2023-08-22T03:32:28.242Z,28.80
2023-08-22T03:34:38.424Z,28.80
2023-08-22T03:36:46.996Z,28.90
2023-08-22T03:38:55.467Z,29.00
2023-08-22T03:41:02.739Z,29.00
2023-08-22T03:43:10.734Z,29.00
2023-08-22T03:45:21.961Z,29.10
2023-08-22T03:47:30.064Z,29.10
2023-08-22T03:49:37.710Z,29.20
2023-08-22T03:51:45.349Z,29.30
2023-08-22T03:53:52.734Z,29.40
2023-08-22T03:56:00.379Z,29.40
2023-08-22T03:58:08.174Z,29.40
2023-08-22T04:00:16.584Z,29.50
2023-08-22T04:02:28.463Z,29.70
2023-08-22T04:04:35.918Z,29.80
2023-08-22T04:06:43.104Z,29.90
2023-08-22T04:08:50.842Z,30.00
2023-08-22T04:10:58.741Z,30.10
2023-08-22T04:13:06.601Z,30.10
2023-08-22T04:15:13.870Z,30.20
2023-08-22T04:17:21.357Z,30.20
2023-08-22T04:19:33.148Z,30.20
2023-08-22T04:21:40.844Z,30.20
2023-08-22T04:23:48.586Z,30.20
2023-08-22T04:25:56.433Z,30.30
2023-08-22T04:28:03.953Z,30.30
2023-08-22T04:30:12.595Z,30.40
2023-08-22T04:32:19.924Z,30.40
2023-08-22T04:34:32.224Z,30.40
2023-08-22T04:36:41.613Z,30.40
2023-08-22T04:38:51.607Z,30.40
2023-08-22T04:41:01.091Z,30.40
2023-08-22T04:43:16.801Z,30.40
2023-08-22T04:45:24.212Z,30.50
2023-08-22T04:47:32.160Z,30.60
2023-08-22T04:49:41.600Z,30.70
2023-08-22T04:51:49.393Z,30.80
2023-08-22T04:53:56.638Z,30.80
2023-08-22T04:56:04.268Z,30.90
2023-08-22T04:58:11.559Z,30.90
2023-08-22T05:00:20.626Z,31.00
2023-08-22T05:02:28.701Z,30.90
2023-08-22T05:04:35.554Z,30.90
2023-08-22T05:06:44.787Z,30.90
2023-08-22T05:08:52.581Z,30.80
2023-08-22T05:10:59.983Z,30.70
2023-08-22T05:13:07.660Z,30.70
2023-08-22T05:15:15.508Z,30.80
2023-08-22T05:17:23.788Z,30.80
2023-08-22T05:19:31.151Z,31.00
2023-08-22T05:21:38.488Z,31.10
2023-08-22T05:23:48.955Z,31.20
2023-08-22T05:25:56.725Z,31.20
2023-08-22T05:28:04.539Z,31.40
2023-08-22T05:30:12.847Z,31.50
2023-08-22T05:32:21.379Z,31.60
2023-08-22T05:34:30.863Z,31.70
2023-08-22T05:36:39.150Z,31.60
2023-08-22T05:38:48.274Z,31.60
2023-08-22T05:40:56.278Z,31.50
2023-08-22T05:43:02.334Z,31.60
2023-08-22T05:45:11.206Z,31.70
2023-08-22T05:47:20.333Z,31.90
2023-08-22T05:49:28.283Z,32.10
2023-08-22T05:51:35.822Z,32.20
2023-08-22T05:53:43.565Z,32.30
2023-08-22T05:55:52.696Z,32.20
2023-08-22T05:58:00.592Z,32.20
2023-08-22T06:00:10.820Z,32.30
2023-08-22T06:02:35.478Z,32.20
2023-08-22T06:04:43.002Z,32.00
2023-08-22T06:06:51.284Z,31.80
2023-08-22T06:08:58.725Z,31.80
2023-08-22T06:11:08.003Z,31.80
2023-08-22T06:13:15.437Z,31.80
2023-08-22T06:15:26.612Z,31.80
2023-08-22T06:17:34.301Z,31.70
2023-08-22T06:19:41.898Z,31.60
2023-08-22T06:21:49.550Z,31.60
2023-08-22T06:23:57.241Z,31.60
2023-08-22T06:26:06.514Z,31.60
2023-08-22T06:28:14.260Z,31.70
2023-08-22T06:30:22.578Z,31.70
2023-08-22T06:32:30.089Z,31.70
2023-08-22T06:34:37.801Z,31.70
2023-08-22T06:36:45.704Z,31.70
2023-08-22T06:38:53.299Z,31.70
2023-08-22T06:41:00.692Z,31.70
2023-08-22T06:43:09.912Z,31.70
2023-08-22T06:45:18.324Z,31.60
2023-08-22T06:47:26.180Z,31.60
2023-08-22T06:49:33.658Z,31.50
2023-08-22T06:51:42.174Z,31.50
2023-08-22T06:53:50.032Z,31.50
2023-08-22T06:55:58.631Z,31.50
2023-08-22T06:58:09.357Z,31.60
2023-08-22T07:00:18.642Z,31.70
2023-08-22T07:02:26.083Z,31.70
2023-08-22T07:04:35.863Z,31.70
2023-08-22T07:06:43.246Z,31.70
2023-08-22T07:08:51.214Z,31.80
2023-08-22T07:11:05.131Z,31.80
2023-08-22T07:13:14.723Z,31.80
2023-08-22T07:15:22.488Z,31.90
2023-08-22T07:17:30.334Z,32.00
2023-08-22T07:19:42.020Z,32.10
2023-08-22T07:21:50.714Z,32.20
2023-08-22T07:23:58.318Z,32.30
2023-08-22T07:26:05.962Z,32.40
2023-08-22T07:28:14.923Z,32.40
2023-08-22T07:30:22.923Z,32.30
2023-08-22T07:32:28.964Z,32.30
2023-08-22T07:34:37.646Z,32.30
2023-08-22T07:36:44.980Z,32.20
2023-08-22T07:38:52.470Z,32.20
2023-08-22T07:40:59.864Z,32.20
2023-08-22T07:43:07.653Z,32.00
2023-08-22T07:45:16.992Z,31.90
2023-08-22T07:47:24.937Z,32.00
2023-08-22T07:49:32.064Z,32.10
2023-08-22T07:51:39.864Z,32.30
2023-08-22T07:53:45.825Z,32.20
2023-08-22T07:55:53.463Z,32.20
2023-08-22T07:58:01.047Z,32.10
2023-08-22T08:00:11.145Z,32.10
2023-08-22T08:02:23.112Z,32.10
2023-08-22T08:04:30.578Z,32.00
2023-08-22T08:06:38.632Z,32.00
2023-08-22T08:08:46.695Z,32.00
2023-08-22T08:10:54.378Z,31.90
2023-08-22T08:13:02.171Z,31.80
2023-08-22T08:15:10.585Z,31.80
2023-08-22T08:17:19.553Z,31.70
2023-08-22T08:19:28.836Z,31.80
2023-08-22T08:21:36.532Z,31.90
2023-08-22T08:23:43.915Z,31.90
2023-08-22T08:25:51.713Z,32.00
2023-08-22T08:27:58.994Z,32.10
2023-08-22T08:30:07.819Z,32.10
2023-08-22T08:32:15.102Z,32.20
2023-08-22T08:34:22.538Z,32.30
2023-08-22T08:36:31.512Z,32.40
2023-08-22T08:38:39.306Z,32.50
2023-08-22T08:40:47.528Z,32.50
2023-08-22T08:42:55.206Z,32.50
2023-08-22T08:45:02.654Z,32.60
2023-08-22T08:47:12.134Z,32.60
2023-08-22T08:49:19.621Z,32.60
2023-08-22T08:51:27.840Z,32.60
2023-08-22T08:53:38.129Z,32.70
2023-08-22T08:55:46.070Z,32.70
2023-08-22T08:57:55.770Z,32.60
2023-08-22T09:00:06.073Z,32.50
2023-08-22T09:02:17.045Z,32.40
2023-08-22T09:04:25.450Z,32.40
2023-08-22T09:06:32.689Z,32.40
2023-08-22T09:08:42.020Z,32.50
2023-08-22T09:10:53.610Z,32.50
2023-08-22T09:13:07.394Z,32.60
2023-08-22T09:15:22.560Z,32.60
2023-08-22T09:17:33.172Z,32.60
2023-08-22T09:19:40.713Z,32.60
2023-08-22T09:22:01.772Z,32.60
2023-08-22T09:24:15.196Z,32.60
2023-08-22T09:26:25.094Z,32.40
2023-08-22T09:28:32.531Z,32.30
2023-08-22T09:30:38.705Z,32.20
2023-08-22T09:32:45.969Z,32.10
2023-08-22T09:35:04.779Z,32.00
2023-08-22T09:37:12.168Z,31.90
2023-08-22T09:39:20.892Z,31.80
2023-08-22T09:41:32.788Z,31.80
2023-08-22T09:43:45.081Z,31.80
2023-08-22T09:45:55.340Z,31.80
2023-08-22T09:48:04.563Z,31.90
2023-08-22T09:50:12.310Z,31.90
2023-08-22T09:52:20.208Z,32.00
2023-08-22T09:54:29.892Z,32.00
2023-08-22T09:56:37.484Z,31.90
2023-08-22T09:58:45.696Z,31.90
2023-08-22T10:00:56.364Z,31.80
2023-08-22T10:03:05.189Z,31.70
2023-08-22T10:05:14.719Z,31.70
2023-08-22T10:07:22.506Z,31.70
2023-08-22T10:09:32.247Z,31.70
2023-08-22T10:11:43.113Z,31.80
2023-08-22T10:13:51.374Z,31.80
2023-08-22T10:15:59.070Z,31.70
2023-08-22T10:18:07.610Z,31.70
2023-08-22T10:20:17.985Z,31.60
2023-08-22T10:22:25.431Z,31.50
2023-08-22T10:24:35.628Z,31.50
2023-08-22T10:27:02.094Z,31.50
2023-08-22T10:29:20.456Z,31.50
2023-08-22T10:31:28.450Z,31.40
2023-08-22T10:33:36.331Z,31.40
2023-08-22T10:35:44.100Z,31.40
2023-08-22T10:37:51.332Z,31.30
2023-08-22T10:40:03.739Z,31.30
2023-08-22T10:42:11.483Z,31.30
2023-08-22T10:44:28.850Z,31.30
2023-08-22T10:47:04.243Z,31.20
2023-08-22T10:49:12.707Z,31.20
2023-08-22T10:51:20.660Z,31.20
2023-08-22T10:53:30.264Z,31.20
2023-08-22T10:55:42.082Z,31.10
2023-08-22T10:57:50.842Z,31.10
2023-08-22T11:00:09.467Z,31.10
2023-08-22T11:02:18.163Z,31.10
2023-08-22T11:04:26.103Z,31.10
2023-08-22T11:06:33.862Z,31.10
2023-08-22T11:08:40.414Z,31.00
2023-08-22T11:10:50.376Z,31.00
2023-08-22T11:13:00.124Z,31.00
2023-08-22T11:15:08.219Z,30.90
2023-08-22T11:17:18.064Z,30.90
2023-08-22T11:19:25.829Z,30.80
2023-08-22T11:21:33.299Z,30.80
2023-08-22T11:23:41.812Z,30.70
2023-08-22T11:25:50.680Z,30.70
2023-08-22T11:27:58.941Z,30.60
2023-08-22T11:30:06.437Z,30.60
2023-08-22T11:32:24.576Z,30.60
2023-08-22T11:34:32.001Z,30.60
2023-08-22T11:36:41.437Z,30.60
2023-08-22T11:38:51.546Z,30.50
2023-08-22T11:41:02.002Z,30.50
2023-08-22T11:43:09.536Z,30.50
2023-08-22T11:45:19.482Z,30.50
2023-08-22T11:47:26.803Z,30.50
2023-08-22T11:49:45.063Z,30.40
2023-08-22T11:51:57.680Z,30.40
2023-08-22T11:54:05.389Z,30.40
2023-08-22T11:56:14.590Z,30.40
2023-08-22T11:58:22.340Z,30.40
2023-08-22T12:00:31.743Z,30.30
2023-08-22T12:02:39.459Z,30.30
2023-08-22T12:04:47.619Z,30.30
2023-08-22T12:07:04.219Z,30.20
2023-08-22T12:09:16.982Z,30.20
2023-08-22T12:11:33.075Z,30.20
2023-08-22T12:13:40.480Z,30.10
2023-08-22T12:15:50.664Z,30.10
2023-08-22T12:17:58.573Z,30.10
2023-08-22T12:20:06.409Z,30.10
2023-08-22T12:22:13.588Z,30.10
2023-08-22T12:24:21.326Z,30.10
2023-08-22T12:26:29.436Z,30.00
2023-08-22T12:28:40.049Z,30.00
2023-08-22T12:30:47.303Z,30.00
2023-08-22T12:32:53.724Z,30.00
2023-08-22T12:35:01.082Z,29.90
2023-08-22T12:37:08.666Z,29.90
2023-08-22T12:39:16.062Z,29.80
2023-08-22T12:41:23.702Z,29.70
2023-08-22T12:43:30.892Z,29.70
2023-08-22T12:45:40.577Z,29.70
2023-08-22T12:47:48.423Z,29.70
2023-08-22T12:49:54.784Z,29.60
2023-08-22T12:52:02.314Z,29.60
2023-08-22T12:54:09.875Z,29.60
2023-08-22T12:56:17.404Z,29.60
2023-08-22T12:58:25.203Z,29.60
2023-08-22T13:00:32.536Z,29.60
2023-08-22T13:02:42.257Z,29.60
2023-08-22T13:04:49.768Z,29.50
2023-08-22T13:06:57.308Z,29.50
2023-08-22T13:09:04.742Z,29.40
2023-08-22T13:11:12.438Z,29.40
2023-08-22T13:13:19.627Z,29.40
2023-08-22T13:15:27.362Z,29.40
2023-08-22T13:17:34.638Z,29.40
2023-08-22T13:19:44.184Z,29.40
2023-08-22T13:21:51.483Z,29.40
2023-08-22T13:23:58.971Z,29.50
2023-08-22T13:26:06.445Z,29.50
2023-08-22T13:28:14.179Z,29.50
2023-08-22T13:30:21.834Z,29.50
2023-08-22T13:32:29.987Z,29.50
2023-08-22T13:34:37.429Z,29.50
2023-08-22T13:36:46.964Z,29.50
2023-08-22T13:38:54.453Z,29.50
2023-08-22T13:41:02.149Z,29.60
2023-08-22T13:43:09.479Z,29.60
2023-08-22T13:45:17.130Z,29.60
2023-08-22T13:47:24.558Z,29.60
2023-08-22T13:49:30.917Z,29.60
2023-08-22T13:51:38.216Z,29.60
2023-08-22T13:53:47.742Z,29.50
2023-08-22T13:55:55.235Z,29.50
2023-08-22T13:58:04.103Z,29.40
2023-08-22T14:00:12.520Z,29.40
2023-08-22T14:02:21.972Z,29.40
2023-08-22T14:04:29.384Z,29.40
2023-08-22T14:06:37.076Z,29.40
2023-08-22T14:08:46.309Z,29.40
2023-08-22T14:10:54.105Z,29.40
2023-08-22T14:13:01.387Z,29.50
2023-08-22T14:15:09.544Z,29.40
2023-08-22T14:17:16.982Z,29.40
2023-08-22T14:19:24.841Z,29.30
2023-08-22T14:21:46.275Z,29.20
2023-08-22T14:23:55.989Z,29.20
2023-08-22T14:26:03.585Z,29.30
2023-08-22T14:28:11.422Z,29.30
2023-08-22T14:30:18.863Z,29.30
2023-08-22T14:32:26.403Z,29.30
2023-08-22T14:34:33.530Z,29.30
2023-08-22T14:36:41.477Z,29.30
2023-08-22T14:38:49.786Z,29.10
2023-08-22T14:41:03.010Z,28.80
2023-08-22T14:43:09.115Z,28.40
2023-08-22T14:45:17.017Z,27.90
2023-08-22T14:47:24.557Z,27.60
2023-08-22T14:49:32.098Z,27.40
2023-08-22T14:51:39.534Z,27.10
2023-08-22T14:53:47.230Z,27.00
2023-08-22T14:56:03.215Z,26.90
2023-08-22T14:58:13.162Z,26.90
2023-08-22T15:00:21.468Z,26.90
2023-08-22T15:02:29.368Z,27.10
2023-08-22T15:04:36.736Z,27.10
2023-08-22T15:06:44.351Z,27.20
2023-08-22T15:08:51.627Z,27.30
2023-08-22T15:10:59.530Z,27.30
2023-08-22T15:13:07.325Z,27.40
2023-08-22T15:15:15.017Z,27.40
2023-08-22T15:17:22.356Z,27.40
2023-08-22T15:19:30.055Z,27.50
2023-08-22T15:21:36.006Z,27.50
2023-08-22T15:23:47.122Z,27.40
2023-08-22T15:25:55.531Z,27.30
2023-08-22T15:28:03.740Z,27.10
2023-08-22T15:30:12.817Z,27.00
2023-08-22T15:32:21.314Z,26.90
2023-08-22T15:34:29.893Z,26.80
2023-08-22T15:36:37.540Z,26.80
2023-08-22T15:38:44.869Z,26.80
2023-08-22T15:40:53.846Z,26.70
2023-08-22T15:43:02.922Z,26.50
2023-08-22T15:45:12.364Z,26.40
2023-08-22T15:47:19.741Z,26.30
2023-08-22T15:49:27.798Z,26.20
2023-08-22T15:51:35.949Z,26.10
2023-08-22T15:53:43.842Z,25.80
2023-08-22T15:55:51.282Z,25.80
2023-08-22T15:57:58.984Z,25.90
2023-08-22T16:00:08.871Z,26.10
2023-08-22T16:02:16.103Z,26.20
2023-08-22T16:04:23.771Z,26.30
2023-08-22T16:06:31.687Z,26.40
2023-08-22T16:08:39.235Z,26.40
2023-08-22T16:10:46.776Z,26.40
2023-08-22T16:12:54.168Z,26.40
2023-08-22T16:15:01.711Z,26.20
2023-08-22T16:17:14.053Z,26.10
2023-08-22T16:19:22.268Z,26.00
2023-08-22T16:21:29.645Z,26.00
2023-08-22T16:23:35.870Z,26.00
2023-08-22T16:25:46.878Z,26.10
2023-08-22T16:27:54.804Z,26.20
2023-08-22T16:30:01.937Z,26.30
2023-08-22T16:32:11.205Z,26.40
2023-08-22T16:34:18.350Z,26.50
2023-08-22T16:36:25.757Z,26.50
2023-08-22T16:38:33.047Z,26.60
2023-08-22T16:40:41.368Z,26.60
2023-08-22T16:42:47.075Z,26.60
2023-08-22T16:44:54.326Z,26.60
2023-08-22T16:47:01.404Z,26.70
2023-08-22T16:49:10.974Z,26.70
2023-08-22T16:51:19.313Z,26.80
2023-08-22T16:53:26.973Z,26.80
2023-08-22T16:55:36.844Z,26.80
2023-08-22T16:57:45.005Z,26.80
2023-08-22T16:59:52.643Z,26.90
2023-08-22T17:02:01.723Z,26.90
2023-08-22T17:04:12.711Z,26.90
2023-08-22T17:06:20.325Z,26.90
2023-08-22T17:08:27.615Z,26.90
2023-08-22T17:10:35.920Z,26.70
2023-08-22T17:12:43.265Z,26.60
2023-08-22T17:14:50.648Z,26.60
2023-08-22T17:16:57.960Z,26.50
2023-08-22T17:19:06.025Z,26.50
2023-08-22T17:21:16.536Z,26.40
2023-08-22T17:23:22.898Z,26.40
2023-08-22T17:25:30.036Z,26.40
2023-08-22T17:27:37.335Z,26.40
2023-08-22T17:29:44.712Z,26.50
2023-08-22T17:31:52.321Z,26.50
2023-08-22T17:33:59.628Z,26.60
2023-08-22T17:36:07.517Z,26.70
2023-08-22T17:38:16.377Z,26.70
2023-08-22T17:40:23.422Z,26.80
2023-08-22T17:42:30.810Z,26.70
2023-08-22T17:44:38.282Z,26.70
2023-08-22T17:46:45.974Z,26.70
2023-08-22T17:48:53.225Z,26.60
2023-08-22T17:51:00.941Z,26.60
2023-08-22T17:53:08.820Z,26.50
2023-08-22T17:55:17.844Z,26.50
2023-08-22T17:57:24.922Z,26.50
2023-08-22T17:59:32.295Z,26.50
2023-08-22T18:01:39.240Z,26.60
2023-08-22T18:03:46.608Z,26.60
2023-08-22T18:06:00.613Z,26.60
2023-08-22T18:08:08.383Z,26.60
2023-08-22T18:10:18.292Z,26.70
2023-08-22T18:12:25.428Z,26.50
2023-08-22T18:14:32.567Z,26.50
2023-08-22T18:16:40.193Z,26.40
2023-08-22T18:18:47.325Z,26.40
2023-08-22T18:20:54.659Z,26.30
2023-08-22T18:23:01.909Z,26.30
2023-08-22T18:25:10.011Z,26.40
2023-08-22T18:27:18.989Z,26.40
2023-08-22T18:29:26.590Z,26.50
2023-08-22T18:31:33.933Z,26.50
2023-08-22T18:33:41.486Z,26.60
2023-08-22T18:35:48.840Z,26.60
2023-08-22T18:37:56.378Z,26.60
2023-08-22T18:40:04.022Z,26.60
2023-08-22T18:42:09.966Z,26.50
2023-08-22T18:44:19.125Z,26.50
2023-08-22T18:46:27.986Z,26.50
2023-08-22T18:48:34.070Z,26.50
2023-08-22T18:50:41.114Z,26.50
2023-08-22T18:52:48.424Z,26.50
2023-08-22T18:54:55.468Z,26.50
2023-08-22T18:57:03.239Z,26.60
2023-08-22T18:59:10.900Z,26.60
2023-08-22T19:01:21.037Z,26.60
2023-08-22T19:03:28.944Z,26.60
2023-08-22T19:05:36.225Z,26.60
2023-08-22T19:07:43.458Z,26.70
2023-08-22T19:09:50.944Z,26.70
2023-08-22T19:11:58.280Z,26.70
2023-08-22T19:14:05.630Z,26.70
2023-08-22T19:16:12.725Z,26.70
2023-08-22T19:18:22.018Z,26.70
2023-08-22T19:20:29.174Z,26.70
2023-08-22T19:22:36.411Z,26.70
2023-08-22T19:24:43.470Z,26.70
2023-08-22T19:26:50.975Z,26.60
2023-08-22T19:28:58.036Z,26.70
2023-08-22T19:31:05.660Z,26.60
2023-08-22T19:33:18.635Z,26.60
2023-08-22T19:35:30.540Z,26.70
2023-08-22T19:37:37.640Z,26.70
2023-08-22T19:39:45.463Z,26.70
2023-08-22T19:41:52.502Z,26.60
2023-08-22T19:43:59.831Z,26.70
2023-08-22T19:46:06.879Z,26.70
2023-08-22T19:48:12.996Z,26.60
2023-08-22T19:50:23.727Z,26.60
2023-08-22T19:52:32.885Z,26.50
2023-08-22T19:54:39.840Z,26.50
2023-08-22T19:56:47.034Z,26.50
2023-08-22T19:58:54.192Z,26.50
2023-08-22T20:01:01.635Z,26.50
2023-08-22T20:03:09.180Z,26.50
2023-08-22T20:05:17.812Z,26.50
2023-08-22T20:07:24.887Z,26.40
2023-08-22T20:09:33.722Z,26.40
2023-08-22T20:11:40.579Z,26.40
2023-08-22T20:13:47.524Z,26.40
2023-08-22T20:15:54.196Z,26.40
2023-08-22T20:18:00.922Z,26.40
2023-08-22T20:20:09.348Z,26.50
2023-08-22T20:22:15.963Z,26.50
2023-08-22T20:24:23.071Z,26.50
2023-08-22T20:26:32.334Z,26.50
2023-08-22T20:28:39.516Z,26.50
2023-08-22T20:30:53.629Z,26.40
2023-08-22T20:33:01.343Z,26.40
2023-08-22T20:35:08.943Z,26.40
2023-08-22T20:37:14.542Z,26.40
2023-08-22T20:39:21.979Z,26.40
2023-08-22T20:41:32.255Z,26.40
2023-08-22T20:43:39.620Z,26.40
2023-08-22T20:45:46.499Z,26.40
2023-08-22T20:47:53.699Z,26.40
2023-08-22T20:50:00.649Z,26.40
2023-08-22T20:52:08.446Z,26.40
2023-08-22T20:54:15.273Z,26.40
2023-08-22T20:56:22.506Z,26.40
2023-08-22T20:58:31.023Z,26.40
2023-08-22T21:00:38.146Z,26.40
2023-08-22T21:02:46.404Z,26.40
2023-08-22T21:04:53.777Z,26.40
2023-08-22T21:07:00.776Z,26.30
2023-08-22T21:09:06.669Z,26.30
2023-08-22T21:11:13.596Z,26.30
2023-08-22T21:13:20.701Z,26.40
2023-08-22T21:15:27.954Z,26.40
2023-08-22T21:17:35.484Z,26.40
2023-08-22T21:19:42.269Z,26.40
2023-08-22T21:21:49.401Z,26.40
2023-08-22T21:23:56.224Z,26.50
2023-08-22T21:26:03.249Z,26.50
2023-08-22T21:28:10.427Z,26.50
2023-08-22T21:30:17.922Z,26.50
2023-08-22T21:32:26.563Z,26.50
2023-08-22T21:34:32.386Z,26.50
2023-08-22T21:36:39.123Z,26.60
2023-08-22T21:38:46.340Z,26.50
2023-08-22T21:40:53.275Z,26.60
2023-08-22T21:43:00.449Z,26.50
2023-08-22T21:45:15.118Z,26.60
2023-08-22T21:47:22.182Z,26.60
2023-08-22T21:49:30.904Z,26.50
2023-08-22T21:51:38.036Z,26.60
2023-08-22T21:53:44.854Z,26.60
2023-08-22T21:55:51.989Z,26.60
2023-08-22T21:57:58.821Z,26.60
2023-08-22T22:00:07.221Z,26.60
2023-08-22T22:02:14.617Z,26.60
2023-08-22T22:04:21.889Z,26.60
2023-08-22T22:06:30.556Z,26.60
2023-08-22T22:08:37.841Z,26.60
2023-08-22T22:10:44.615Z,26.50
2023-08-22T22:12:51.696Z,26.60
2023-08-22T22:14:58.617Z,26.60
2023-08-22T22:17:05.908Z,26.60
2023-08-22T22:19:13.137Z,26.60
2023-08-22T22:21:20.335Z,26.60
2023-08-22T22:23:29.237Z,26.60
2023-08-22T22:25:36.524Z,26.50
2023-08-22T22:27:44.361Z,26.50
2023-08-22T22:29:52.526Z,26.50
2023-08-22T22:31:59.705Z,26.50
2023-08-22T22:34:08.066Z,26.60
2023-08-22T22:36:14.940Z,26.60
2023-08-22T22:38:21.865Z,26.60
2023-08-22T22:40:29.766Z,26.60
2023-08-22T22:42:36.639Z,26.60
2023-08-22T22:44:42.340Z,26.60
2023-08-22T22:46:49.212Z,26.60
2023-08-22T22:48:56.392Z,26.60
2023-08-22T22:51:03.264Z,26.60
2023-08-22T22:53:09.273Z,26.60
2023-08-22T22:55:16.051Z,26.50
2023-08-22T22:57:24.796Z,26.50
2023-08-22T22:59:31.638Z,26.40
2023-08-22T23:01:38.714Z,26.40
2023-08-22T23:03:46.003Z,26.40
2023-08-22T23:05:53.024Z,26.40
2023-08-22T23:08:00.001Z,26.40
2023-08-22T23:10:07.008Z,26.50
2023-08-22T23:12:14.469Z,26.40
2023-08-22T23:14:23.183Z,26.40
2023-08-22T23:16:30.291Z,26.40
2023-08-22T23:18:37.135Z,26.40
2023-08-22T23:20:44.631Z,26.40
2023-08-22T23:22:52.778Z,26.30
2023-08-22T23:25:00.326Z,26.30
2023-08-22T23:27:07.968Z,26.40
2023-08-22T23:29:15.658Z,26.40
2023-08-22T23:31:24.760Z,26.40
2023-08-22T23:33:32.479Z,26.40
2023-08-22T23:35:39.915Z,26.50
2023-08-22T23:37:46.155Z,26.40
2023-08-22T23:39:54.800Z,26.40
2023-08-22T23:42:02.385Z,26.50
2023-08-22T23:44:13.916Z,26.50
2023-08-22T23:46:20.743Z,26.40
2023-08-22T23:48:29.766Z,26.40
2023-08-22T23:50:37.569Z,26.40
2023-08-22T23:52:45.100Z,26.40
2023-08-22T23:54:52.742Z,26.40
2023-08-22T23:57:00.185Z,26.40
2023-08-22T23:59:07.821Z,26.40
